sensor_id;sensor_type;location;lat;lon;timestamp;pressure;altitude;pressure_sealevel;temperature;humidity
11440;BME280;5776;51.814;4.510;2023-04-10T00:01:13;102070.78;;;10.62;93.17
11440;BME280;5776;51.814;4.510;2023-04-10T00:03:39;102066.69;;;10.59;93.38
11440;BME280;5776;51.814;4.510;2023-04-10T00:06:06;102066.69;;;10.59;94.01
11440;BME280;5776;51.814;4.510;2023-04-10T00:08:32;102068.31;;;10.60;93.11
11440;BME280;5776;51.814;4.510;2023-04-10T00:10:58;102063.97;;;10.59;93.66
11440;BME280;5776;51.814;4.510;2023-04-10T00:13:25;102068.31;;;10.60;93.23
11440;BME280;5776;51.814;4.510;2023-04-10T00:15:51;102064.53;;;10.62;93.30
11440;BME280;5776;51.814;4.510;2023-04-10T00:18:17;102056.91;;;10.58;93.63
11440;BME280;5776;51.814;4.510;2023-04-10T00:20:42;102066.13;;;10.57;93.74
11440;BME280;5776;51.814;4.510;2023-04-10T00:23:09;102070.50;;;10.58;93.46
11440;BME280;5776;51.814;4.510;2023-04-10T00:25:35;102060.97;;;10.56;93.55
11440;BME280;5776;51.814;4.510;2023-04-10T00:28:00;102059.31;;;10.55;93.74
11440;BME280;5776;51.814;4.510;2023-04-10T00:30:26;102060.13;;;10.55;93.95
11440;BME280;5776;51.814;4.510;2023-04-10T00:32:52;102050.09;;;10.56;93.37
11440;BME280;5776;51.814;4.510;2023-04-10T00:35:18;102052.25;;;10.54;94.05
11440;BME280;5776;51.814;4.510;2023-04-10T00:37:44;102048.16;;;10.51;94.11
11440;BME280;5776;51.814;4.510;2023-04-10T00:40:10;102041.91;;;10.51;94.34
11440;BME280;5776;51.814;4.510;2023-04-10T00:42:37;102036.72;;;10.49;93.73
11440;BME280;5776;51.814;4.510;2023-04-10T00:45:03;102036.72;;;10.49;94.07
11440;BME280;5776;51.814;4.510;2023-04-10T00:47:29;102026.94;;;10.48;93.71
11440;BME280;5776;51.814;4.510;2023-04-10T00:49:56;102036.16;;;10.47;93.79
11440;BME280;5776;51.814;4.510;2023-04-10T00:52:23;102036.97;;;10.48;93.93
11440;BME280;5776;51.814;4.510;2023-04-10T00:54:49;102031.53;;;10.48;94.09
11440;BME280;5776;51.814;4.510;2023-04-10T00:57:16;102026.63;;;10.45;93.80
11440;BME280;5776;51.814;4.510;2023-04-10T00:59:41;102019.00;;;10.42;93.60
11440;BME280;5776;51.814;4.510;2023-04-10T01:02:07;102021.75;;;10.47;94.42
11440;BME280;5776;51.814;4.510;2023-04-10T01:04:34;102010.84;;;10.42;94.20
11440;BME280;5776;51.814;4.510;2023-04-10T01:09:58;101999.44;;;10.40;94.17
11440;BME280;5776;51.814;4.510;2023-04-10T01:15:14;101995.91;;;10.39;94.45
11440;BME280;5776;51.814;4.510;2023-04-10T01:20:49;101991.00;;;10.36;94.40
11440;BME280;5776;51.814;4.510;2023-04-10T01:23:40;101984.19;;;10.33;94.56
11440;BME280;5776;51.814;4.510;2023-04-10T01:26:11;101988.22;;;10.31;94.66
11440;BME280;5776;51.814;4.510;2023-04-10T01:29:10;101982.22;;;10.29;95.45
11440;BME280;5776;51.814;4.510;2023-04-10T01:32:01;101980.34;;;10.29;95.07
11440;BME280;5776;51.814;4.510;2023-04-10T01:34:39;101984.13;;;10.28;95.53
11440;BME280;5776;51.814;4.510;2023-04-10T01:37:20;101982.44;;;10.27;95.55
11440;BME280;5776;51.814;4.510;2023-04-10T01:39:50;101985.44;;;10.26;95.26
11440;BME280;5776;51.814;4.510;2023-04-10T01:42:20;101975.88;;;10.23;95.82
11440;BME280;5776;51.814;4.510;2023-04-10T01:44:47;101970.44;;;10.23;96.00
11440;BME280;5776;51.814;4.510;2023-04-10T01:47:15;101966.94;;;10.23;95.90
11440;BME280;5776;51.814;4.510;2023-04-10T01:49:44;101968.00;;;10.22;95.98
11440;BME280;5776;51.814;4.510;2023-04-10T01:52:12;101965.31;;;10.22;96.52
11440;BME280;5776;51.814;4.510;2023-04-10T01:54:38;101964.50;;;10.21;95.89
11440;BME280;5776;51.814;4.510;2023-04-10T01:57:05;101966.34;;;10.21;96.50
11440;BME280;5776;51.814;4.510;2023-04-10T01:59:31;101961.22;;;10.19;96.23
11440;BME280;5776;51.814;4.510;2023-04-10T02:01:58;101960.38;;;10.19;96.29
11440;BME280;5776;51.814;4.510;2023-04-10T02:04:25;101956.03;;;10.17;96.44
11440;BME280;5776;51.814;4.510;2023-04-10T02:07:38;101950.59;;;10.17;97.29
11440;BME280;5776;51.814;4.510;2023-04-10T02:10:16;101962.53;;;10.16;97.20
11440;BME280;5776;51.814;4.510;2023-04-10T02:12:52;101968.22;;;10.15;96.74
11440;BME280;5776;51.814;4.510;2023-04-10T02:15:22;101953.78;;;10.09;96.81
11440;BME280;5776;51.814;4.510;2023-04-10T02:17:51;101956.25;;;10.11;97.20
11440;BME280;5776;51.814;4.510;2023-04-10T02:20:17;101953.22;;;10.07;97.79
11440;BME280;5776;51.814;4.510;2023-04-10T02:22:44;101960.78;;;10.05;97.28
11440;BME280;5776;51.814;4.510;2023-04-10T02:25:10;101957.25;;;10.05;97.99
11440;BME280;5776;51.814;4.510;2023-04-10T02:27:38;101962.97;;;10.03;97.99
11440;BME280;5776;51.814;4.510;2023-04-10T02:30:04;101958.88;;;10.01;97.97
11440;BME280;5776;51.814;4.510;2023-04-10T02:32:31;101955.88;;;10.02;97.94
11440;BME280;5776;51.814;4.510;2023-04-10T02:34:57;101959.94;;;10.00;97.31
11440;BME280;5776;51.814;4.510;2023-04-10T02:37:24;101963.97;;;9.97;98.06
11440;BME280;5776;51.814;4.510;2023-04-10T02:39:51;101959.69;;;10.01;97.82
11440;BME280;5776;51.814;4.510;2023-04-10T02:42:18;101968.31;;;9.98;97.86
11440;BME280;5776;51.814;4.510;2023-04-10T02:44:44;101973.69;;;9.93;97.58
11440;BME280;5776;51.814;4.510;2023-04-10T02:47:10;101972.88;;;9.92;98.27
11440;BME280;5776;51.814;4.510;2023-04-10T02:49:36;101963.41;;;9.95;98.16
11440;BME280;5776;51.814;4.510;2023-04-10T02:52:01;101966.88;;;9.90;97.94
11440;BME280;5776;51.814;4.510;2023-04-10T02:54:27;101973.44;;;9.94;98.08
11440;BME280;5776;51.814;4.510;2023-04-10T02:56:55;101971.25;;;9.91;97.27
11440;BME280;5776;51.814;4.510;2023-04-10T02:59:21;101970.94;;;9.88;97.22
11440;BME280;5776;51.814;4.510;2023-04-10T03:01:49;101976.88;;;9.85;97.30
11440;BME280;5776;51.814;4.510;2023-04-10T03:04:17;101960.03;;;9.83;97.49
11440;BME280;5776;51.814;4.510;2023-04-10T03:06:43;101954.94;;;9.86;96.77
11440;BME280;5776;51.814;4.510;2023-04-10T03:09:09;101955.22;;;9.90;96.02
11440;BME280;5776;51.814;4.510;2023-04-10T03:11:35;101951.44;;;9.91;96.52
11440;BME280;5776;51.814;4.510;2023-04-10T03:14:03;101948.47;;;9.92;96.75
11440;BME280;5776;51.814;4.510;2023-04-10T03:16:29;101944.63;;;9.88;95.99
11440;BME280;5776;51.814;4.510;2023-04-10T03:18:55;101940.84;;;9.89;95.68
11440;BME280;5776;51.814;4.510;2023-04-10T03:21:21;101941.09;;;9.88;95.47
11440;BME280;5776;51.814;4.510;2023-04-10T03:23:47;101934.03;;;9.87;95.65
11440;BME280;5776;51.814;4.510;2023-04-10T03:26:13;101936.19;;;9.85;95.36
11440;BME280;5776;51.814;4.510;2023-04-10T03:28:40;101937.25;;;9.84;96.24
11440;BME280;5776;51.814;4.510;2023-04-10T03:31:06;101942.13;;;9.82;95.69
11440;BME280;5776;51.814;4.510;2023-04-10T03:33:32;101937.84;;;9.86;95.95
11440;BME280;5776;51.814;4.510;2023-04-10T03:35:57;101935.59;;;9.83;96.57
11440;BME280;5776;51.814;4.510;2023-04-10T03:38:23;101925.84;;;9.82;96.25
11440;BME280;5776;51.814;4.510;2023-04-10T03:40:49;101915.81;;;9.82;95.29
11440;BME280;5776;51.814;4.510;2023-04-10T03:43:15;101910.94;;;9.84;95.46
11440;BME280;5776;51.814;4.510;2023-04-10T03:45:41;101912.84;;;9.84;96.02
11440;BME280;5776;51.814;4.510;2023-04-10T03:48:07;101906.31;;;9.85;95.41
11440;BME280;5776;51.814;4.510;2023-04-10T03:50:33;101908.22;;;9.84;95.78
11440;BME280;5776;51.814;4.510;2023-04-10T03:52:59;101903.63;;;9.85;95.87
11440;BME280;5776;51.814;4.510;2023-04-10T03:55:26;101902.00;;;9.84;95.77
11440;BME280;5776;51.814;4.510;2023-04-10T03:57:52;101892.75;;;9.85;96.24
11440;BME280;5776;51.814;4.510;2023-04-10T04:00:19;101888.09;;;9.80;96.04
11440;BME280;5776;51.814;4.510;2023-04-10T04:02:46;101882.44;;;9.82;95.82
11440;BME280;5776;51.814;4.510;2023-04-10T04:05:11;101888.66;;;9.82;95.94
11440;BME280;5776;51.814;4.510;2023-04-10T04:07:37;101891.38;;;9.82;95.71
11440;BME280;5776;51.814;4.510;2023-04-10T04:10:03;101891.38;;;9.82;94.76
11440;BME280;5776;51.814;4.510;2023-04-10T04:12:29;101887.59;;;9.83;94.90
11440;BME280;5776;51.814;4.510;2023-04-10T04:14:55;101889.47;;;9.83;95.94
11440;BME280;5776;51.814;4.510;2023-04-10T04:17:21;101888.09;;;9.80;94.79
11440;BME280;5776;51.814;4.510;2023-04-10T04:19:47;101881.34;;;9.83;94.67
11440;BME280;5776;51.814;4.510;2023-04-10T04:22:13;101877.81;;;9.82;94.71
11440;BME280;5776;51.814;4.510;2023-04-10T04:24:40;101874.53;;;9.80;95.36
11440;BME280;5776;51.814;4.510;2023-04-10T04:27:06;101871.56;;;9.82;95.29
11440;BME280;5776;51.814;4.510;2023-04-10T04:29:32;101877.00;;;9.82;95.13
11440;BME280;5776;51.814;4.510;2023-04-10T04:31:57;101877.00;;;9.82;94.92
11440;BME280;5776;51.814;4.510;2023-04-10T04:34:23;101866.66;;;9.79;95.23
11440;BME280;5776;51.814;4.510;2023-04-10T04:36:49;101857.97;;;9.77;94.88
11440;BME280;5776;51.814;4.510;2023-04-10T04:39:15;101858.78;;;9.77;95.28
11440;BME280;5776;51.814;4.510;2023-04-10T04:41:41;101860.69;;;9.77;95.86
11440;BME280;5776;51.814;4.510;2023-04-10T04:44:08;101855.50;;;9.75;95.36
11440;BME280;5776;51.814;4.510;2023-04-10T04:46:34;101856.34;;;9.76;95.57
11440;BME280;5776;51.814;4.510;2023-04-10T04:48:59;101851.97;;;9.74;95.57
11440;BME280;5776;51.814;4.510;2023-04-10T04:51:25;101843.84;;;9.74;95.52
11440;BME280;5776;51.814;4.510;2023-04-10T04:53:51;101854.69;;;9.74;94.58
11440;BME280;5776;51.814;4.510;2023-04-10T04:56:17;101853.06;;;9.73;94.55
11440;BME280;5776;51.814;4.510;2023-04-10T04:58:43;101849.78;;;9.71;95.00
11440;BME280;5776;51.814;4.510;2023-04-10T05:01:09;101845.41;;;9.70;94.66
11440;BME280;5776;51.814;4.510;2023-04-10T05:03:35;101846.25;;;9.71;94.89
11440;BME280;5776;51.814;4.510;2023-04-10T05:06:01;101847.31;;;9.70;94.45
11440;BME280;5776;51.814;4.510;2023-04-10T05:08:27;101849.78;;;9.71;94.62
11440;BME280;5776;51.814;4.510;2023-04-10T05:10:53;101843.53;;;9.71;95.20
11440;BME280;5776;51.814;4.510;2023-04-10T05:13:18;101843.78;;;9.69;95.37
11440;BME280;5776;51.814;4.510;2023-04-10T05:15:45;101840.25;;;9.69;95.23
11440;BME280;5776;51.814;4.510;2023-04-10T05:18:11;101845.94;;;9.67;94.89
11440;BME280;5776;51.814;4.510;2023-04-10T05:20:38;101840.78;;;9.66;95.75
11440;BME280;5776;51.814;4.510;2023-04-10T05:23:04;101847.03;;;9.66;95.87
11440;BME280;5776;51.814;4.510;2023-04-10T05:25:30;101841.69;;;9.77;95.65
11440;BME280;5776;51.814;4.510;2023-04-10T05:27:56;101842.50;;;9.77;95.38
11440;BME280;5776;51.814;4.510;2023-04-10T05:30:22;101841.69;;;9.77;95.39
11440;BME280;5776;51.814;4.510;2023-04-10T05:32:47;101848.75;;;9.78;95.58
11440;BME280;5776;51.814;4.510;2023-04-10T05:35:13;101850.91;;;9.76;94.90
11440;BME280;5776;51.814;4.510;2023-04-10T05:37:40;101841.94;;;9.75;95.42
11440;BME280;5776;51.814;4.510;2023-04-10T05:40:07;101836.78;;;9.73;95.91
11440;BME280;5776;51.814;4.510;2023-04-10T05:42:33;101839.50;;;9.73;94.93
11440;BME280;5776;51.814;4.510;2023-04-10T05:44:59;101843.88;;;9.80;95.88
11440;BME280;5776;51.814;4.510;2023-04-10T05:47:25;101844.41;;;9.77;95.29
11440;BME280;5776;51.814;4.510;2023-04-10T05:49:50;101835.69;;;9.74;95.03
11440;BME280;5776;51.814;4.510;2023-04-10T05:52:16;101827.56;;;9.74;95.43
11440;BME280;5776;51.814;4.510;2023-04-10T05:54:42;101823.78;;;9.76;95.73
11440;BME280;5776;51.814;4.510;2023-04-10T05:57:08;101820.50;;;9.73;95.44
11440;BME280;5776;51.814;4.510;2023-04-10T05:59:34;101818.03;;;9.72;94.81
11440;BME280;5776;51.814;4.510;2023-04-10T06:02:01;101826.44;;;9.70;94.52
11440;BME280;5776;51.814;4.510;2023-04-10T06:04:26;101821.00;;;9.70;94.82
11440;BME280;5776;51.814;4.510;2023-04-10T06:06:51;101822.09;;;9.69;94.38
11440;BME280;5776;51.814;4.510;2023-04-10T06:09:17;101812.63;;;9.72;95.18
11440;BME280;5776;51.814;4.510;2023-04-10T06:11:43;101821.84;;;9.71;94.23
11440;BME280;5776;51.814;4.510;2023-04-10T06:14:09;101810.72;;;9.72;95.13
11440;BME280;5776;51.814;4.510;2023-04-10T06:16:35;101814.50;;;9.71;94.42
11440;BME280;5776;51.814;4.510;2023-04-10T06:19:01;101811.81;;;9.71;94.12
11440;BME280;5776;51.814;4.510;2023-04-10T06:21:27;101805.81;;;9.69;94.92
11440;BME280;5776;51.814;4.510;2023-04-10T06:23:53;101794.66;;;9.66;94.23
11440;BME280;5776;51.814;4.510;2023-04-10T06:26:19;101789.25;;;9.66;94.24
11440;BME280;5776;51.814;4.510;2023-04-10T06:28:45;101782.72;;;9.67;94.09
11440;BME280;5776;51.814;4.510;2023-04-10T06:31:11;101780.03;;;9.67;93.72
11440;BME280;5776;51.814;4.510;2023-04-10T06:33:37;101769.69;;;9.64;93.71
11440;BME280;5776;51.814;4.510;2023-04-10T06:36:03;101763.50;;;9.68;93.54
11440;BME280;5776;51.814;4.510;2023-04-10T06:38:29;101759.69;;;9.69;94.21
11440;BME280;5776;51.814;4.510;2023-04-10T06:40:55;101768.09;;;9.68;94.27
11440;BME280;5776;51.814;4.510;2023-04-10T06:43:21;101760.78;;;9.68;94.63
11440;BME280;5776;51.814;4.510;2023-04-10T06:45:47;101751.00;;;9.67;94.39
11440;BME280;5776;51.814;4.510;2023-04-10T06:48:13;101753.47;;;9.69;93.77
11440;BME280;5776;51.814;4.510;2023-04-10T06:50:39;101746.69;;;9.71;93.69
11440;BME280;5776;51.814;4.510;2023-04-10T06:53:05;101745.03;;;9.70;93.86
11440;BME280;5776;51.814;4.510;2023-04-10T06:55:31;101761.31;;;9.70;94.28
11440;BME280;5776;51.814;4.510;2023-04-10T06:57:57;101743.19;;;9.71;94.28
11440;BME280;5776;51.814;4.510;2023-04-10T07:00:23;101745.59;;;9.72;94.78
11440;BME280;5776;51.814;4.510;2023-04-10T07:02:50;101739.94;;;9.74;94.64
11440;BME280;5776;51.814;4.510;2023-04-10T07:05:16;101731.22;;;9.72;94.22
11440;BME280;5776;51.814;4.510;2023-04-10T07:07:41;101737.47;;;9.72;93.91
11440;BME280;5776;51.814;4.510;2023-04-10T07:10:08;101731.53;;;9.76;94.25
11440;BME280;5776;51.814;4.510;2023-04-10T07:12:34;101737.50;;;9.78;94.90
11440;BME280;5776;51.814;4.510;2023-04-10T07:15:00;101722.06;;;9.78;94.39
11440;BME280;5776;51.814;4.510;2023-04-10T07:17:26;101721.78;;;9.80;94.40
11440;BME280;5776;51.814;4.510;2023-04-10T07:19:52;101720.16;;;9.79;94.91
11440;BME280;5776;51.814;4.510;2023-04-10T07:22:18;101713.13;;;9.83;95.10
11440;BME280;5776;51.814;4.510;2023-04-10T07:24:44;101709.91;;;9.86;95.14
11440;BME280;5776;51.814;4.510;2023-04-10T07:27:10;101710.41;;;9.83;94.87
11440;BME280;5776;51.814;4.510;2023-04-10T07:29:37;101710.69;;;9.81;95.04
11440;BME280;5776;51.814;4.510;2023-04-10T07:32:03;101707.41;;;9.79;94.49
11440;BME280;5776;51.814;4.510;2023-04-10T07:34:30;101702.56;;;9.81;94.83
11440;BME280;5776;51.814;4.510;2023-04-10T07:36:56;101694.41;;;9.81;94.93
11440;BME280;5776;51.814;4.510;2023-04-10T07:39:22;101690.59;;;9.82;94.96
11440;BME280;5776;51.814;4.510;2023-04-10T07:41:48;101697.13;;;9.81;94.35
11440;BME280;5776;51.814;4.510;2023-04-10T07:44:14;101684.13;;;9.83;95.09
11440;BME280;5776;51.814;4.510;2023-04-10T07:46:39;101685.22;;;9.87;94.97
11440;BME280;5776;51.814;4.510;2023-04-10T07:49:06;101677.88;;;9.88;94.60
11440;BME280;5776;51.814;4.510;2023-04-10T07:51:32;101684.97;;;9.89;94.71
11440;BME280;5776;51.814;4.510;2023-04-10T07:53:58;101681.19;;;9.95;95.94
11440;BME280;5776;51.814;4.510;2023-04-10T07:56:24;101679.28;;;9.95;95.13
11440;BME280;5776;51.814;4.510;2023-04-10T07:58:50;101666.56;;;9.96;95.16
11440;BME280;5776;51.814;4.510;2023-04-10T08:01:16;101663.84;;;9.96;95.03
11440;BME280;5776;51.814;4.510;2023-04-10T08:03:43;101659.47;;;9.95;95.38
11440;BME280;5776;51.814;4.510;2023-04-10T08:06:10;101650.53;;;9.94;94.99
11440;BME280;5776;51.814;4.510;2023-04-10T08:08:37;101640.75;;;9.93;94.60
11440;BME280;5776;51.814;4.510;2023-04-10T08:11:29;101641.81;;;9.92;94.66
11440;BME280;5776;51.814;4.510;2023-04-10T08:13:54;101636.13;;;9.94;95.08
11440;BME280;5776;51.814;4.510;2023-04-10T08:16:24;101639.66;;;9.94;94.29
11440;BME280;5776;51.814;4.510;2023-04-10T08:18:54;101638.31;;;9.97;95.13
11440;BME280;5776;51.814;4.510;2023-04-10T08:21:21;101634.50;;;9.98;94.60
11440;BME280;5776;51.814;4.510;2023-04-10T08:23:51;101628.03;;;10.04;95.22
11440;BME280;5776;51.814;4.510;2023-04-10T08:26:18;101632.41;;;10.10;95.79
11440;BME280;5776;51.814;4.510;2023-04-10T08:28:46;101626.47;;;10.13;95.47
11440;BME280;5776;51.814;4.510;2023-04-10T08:31:15;101627.53;;;10.12;94.79
11440;BME280;5776;51.814;4.510;2023-04-10T08:33:41;101625.09;;;10.11;94.47
11440;BME280;5776;51.814;4.510;2023-04-10T08:36:08;101627.53;;;10.12;94.79
11440;BME280;5776;51.814;4.510;2023-04-10T08:38:34;101622.09;;;10.12;95.30
11440;BME280;5776;51.814;4.510;2023-04-10T08:41:00;101622.91;;;10.13;95.03
11440;BME280;5776;51.814;4.510;2023-04-10T08:43:25;101629.97;;;10.14;95.39
11440;BME280;5776;51.814;4.510;2023-04-10T08:45:52;101619.41;;;10.17;94.02
11440;BME280;5776;51.814;4.510;2023-04-10T08:48:18;101607.72;;;10.17;94.92
11440;BME280;5776;51.814;4.510;2023-04-10T08:50:48;101608.84;;;10.21;95.28
11440;BME280;5776;51.814;4.510;2023-04-10T08:53:15;101609.66;;;10.27;95.61
11440;BME280;5776;51.814;4.510;2023-04-10T08:55:43;101595.28;;;10.26;95.76
11440;BME280;5776;51.814;4.510;2023-04-10T08:58:10;101590.66;;;10.27;96.02
11440;BME280;5776;51.814;4.510;2023-04-10T09:00:37;101583.09;;;10.29;95.76
11440;BME280;5776;51.814;4.510;2023-04-10T09:03:09;101574.97;;;10.29;95.46
11440;BME280;5776;51.814;4.510;2023-04-10T09:05:39;101580.09;;;10.30;96.02
11440;BME280;5776;51.814;4.510;2023-04-10T09:08:09;101568.44;;;10.30;95.68
11440;BME280;5776;51.814;4.510;2023-04-10T09:10:36;101571.97;;;10.30;96.30
11440;BME280;5776;51.814;4.510;2023-04-10T09:13:02;101582.56;;;10.32;96.41
11440;BME280;5776;51.814;4.510;2023-04-10T09:15:28;101579.59;;;10.33;96.46
11440;BME280;5776;51.814;4.510;2023-04-10T09:20:25;101569.25;;;10.35;96.34
11440;BME280;5776;51.814;4.510;2023-04-10T09:22:51;101559.22;;;10.36;95.94
11440;BME280;5776;51.814;4.510;2023-04-10T09:25:37;101552.69;;;10.37;96.13
11440;BME280;5776;51.814;4.510;2023-04-10T09:28:07;101555.16;;;10.38;95.93
11440;BME280;5776;51.814;4.510;2023-04-10T09:30:42;101548.88;;;10.38;97.04
11440;BME280;5776;51.814;4.510;2023-04-10T09:33:25;101545.66;;;10.41;95.51
11440;BME280;5776;51.814;4.510;2023-04-10T09:35:58;101550.81;;;10.43;96.29
11440;BME280;5776;51.814;4.510;2023-04-10T09:38:28;101551.91;;;10.47;96.24
11440;BME280;5776;51.814;4.510;2023-04-10T09:41:05;101546.72;;;10.50;96.25
11440;BME280;5776;51.814;4.510;2023-04-10T09:43:31;101542.94;;;10.51;96.62
11440;BME280;5776;51.814;4.510;2023-04-10T09:45:57;101532.09;;;10.51;96.17
11440;BME280;5776;51.814;4.510;2023-04-10T09:48:24;101536.41;;;10.52;96.15
11440;BME280;5776;51.814;4.510;2023-04-10T09:50:51;101530.72;;;10.54;96.16
11440;BME280;5776;51.814;4.510;2023-04-10T09:53:18;101522.28;;;10.55;96.07
11440;BME280;5776;51.814;4.510;2023-04-10T09:55:46;101517.41;;;10.57;95.99
11440;BME280;5776;51.814;4.510;2023-04-10T09:58:14;101506.28;;;10.59;96.17
11440;BME280;5776;51.814;4.510;2023-04-10T10:00:47;101519.56;;;10.60;95.43
11440;BME280;5776;51.814;4.510;2023-04-10T10:03:17;101512.78;;;10.63;95.91
11440;BME280;5776;51.814;4.510;2023-04-10T10:05:48;101507.91;;;10.65;96.21
11440;BME280;5776;51.814;4.510;2023-04-10T10:08:14;101512.53;;;10.70;95.83
11440;BME280;5776;51.814;4.510;2023-04-10T10:10:47;101495.97;;;10.71;96.21
11440;BME280;5776;51.814;4.510;2023-04-10T10:13:27;101504.38;;;10.70;96.34
11440;BME280;5776;51.814;4.510;2023-04-10T10:16:10;101498.13;;;10.69;97.12
11440;BME280;5776;51.814;4.510;2023-04-10T10:18:43;101488.88;;;10.75;96.82
11440;BME280;5776;51.814;4.510;2023-04-10T10:21:12;101493.50;;;10.80;96.86
11440;BME280;5776;51.814;4.510;2023-04-10T10:23:39;101483.97;;;10.82;96.88
11440;BME280;5776;51.814;4.510;2023-04-10T10:26:05;101481.81;;;10.85;96.89
11440;BME280;5776;51.814;4.510;2023-04-10T10:28:32;101475.00;;;10.87;96.52
11440;BME280;5776;51.814;4.510;2023-04-10T10:31:02;101466.03;;;10.92;96.20
11440;BME280;5776;51.814;4.510;2023-04-10T10:33:29;101466.84;;;10.97;96.71
11440;BME280;5776;51.814;4.510;2023-04-10T10:36:02;101455.69;;;10.99;96.59
11440;BME280;5776;51.814;4.510;2023-04-10T10:38:29;101448.91;;;10.96;97.04
11440;BME280;5776;51.814;4.510;2023-04-10T10:41:04;101435.84;;;11.03;98.04
11440;BME280;5776;51.814;4.510;2023-04-10T10:44:00;101424.97;;;11.03;98.33
11440;BME280;5776;51.814;4.510;2023-04-10T10:46:33;101413.03;;;10.99;98.23
11440;BME280;5776;51.814;4.510;2023-04-10T10:49:01;101415.19;;;10.97;98.34
11440;BME280;5776;51.814;4.510;2023-04-10T10:51:48;101409.75;;;10.97;98.73
11440;BME280;5776;51.814;4.510;2023-04-10T10:54:30;101408.16;;;10.96;98.66
11440;BME280;5776;51.814;4.510;2023-04-10T10:56:57;101407.03;;;10.97;98.23
11440;BME280;5776;51.814;4.510;2023-04-10T11:02:14;101388.00;;;11.02;98.35
11440;BME280;5776;51.814;4.510;2023-04-10T11:07:08;101380.66;;;11.03;98.64
11440;BME280;5776;51.814;4.510;2023-04-10T11:09:45;101376.88;;;11.04;98.73
11440;BME280;5776;51.814;4.510;2023-04-10T11:12:20;101363.81;;;11.06;98.75
11440;BME280;5776;51.814;4.510;2023-04-10T11:14:59;101368.69;;;11.09;98.60
11440;BME280;5776;51.814;4.510;2023-04-10T11:17:48;101368.06;;;11.22;98.81
11440;BME280;5776;51.814;4.510;2023-04-10T11:20:16;101372.91;;;11.31;98.94
11440;BME280;5776;51.814;4.510;2023-04-10T11:23:10;101368.00;;;11.38;98.26
11440;BME280;5776;51.814;4.510;2023-04-10T11:25:50;101364.47;;;11.37;98.44
11440;BME280;5776;51.814;4.510;2023-04-10T11:31:17;101352.75;;;11.42;97.85
11440;BME280;5776;51.814;4.510;2023-04-10T11:33:46;101350.84;;;11.42;97.64
11440;BME280;5776;51.814;4.510;2023-04-10T11:36:15;101333.94;;;11.45;97.68
11440;BME280;5776;51.814;4.510;2023-04-10T11:38:59;101344.81;;;11.45;97.51
11440;BME280;5776;51.814;4.510;2023-04-10T11:41:31;101347.00;;;11.49;97.38
11440;BME280;5776;51.814;4.510;2023-04-10T11:43:59;101318.44;;;11.51;97.68
11440;BME280;5776;51.814;4.510;2023-04-10T11:46:27;101309.16;;;11.52;97.57
11440;BME280;5776;51.814;4.510;2023-04-10T11:49:00;101308.59;;;11.55;97.68
11440;BME280;5776;51.814;4.510;2023-04-10T11:51:26;101315.41;;;11.53;98.64
11440;BME280;5776;51.814;4.510;2023-04-10T11:54:09;101302.41;;;11.44;98.66
11440;BME280;5776;51.814;4.510;2023-04-10T11:56:38;101298.63;;;11.40;99.01
11440;BME280;5776;51.814;4.510;2023-04-10T11:59:04;101300.78;;;11.49;99.17
11440;BME280;5776;51.814;4.510;2023-04-10T12:01:39;101298.56;;;11.51;99.23
11440;BME280;5776;51.814;4.510;2023-04-10T12:04:16;101291.19;;;11.56;99.18
11440;BME280;5776;51.814;4.510;2023-04-10T12:06:46;101284.38;;;11.59;99.42
11440;BME280;5776;51.814;4.510;2023-04-10T12:09:13;101287.09;;;11.59;99.66
11440;BME280;5776;51.814;4.510;2023-04-10T12:11:57;101278.44;;;11.52;99.88
11440;BME280;5776;51.814;4.510;2023-04-10T12:14:30;101284.44;;;11.49;99.75
11440;BME280;5776;51.814;4.510;2023-04-10T12:16:58;101290.44;;;11.45;99.90
11440;BME280;5776;51.814;4.510;2023-04-10T12:19:24;101282.56;;;11.44;100.00
11440;BME280;5776;51.814;4.510;2023-04-10T12:21:50;101286.06;;;11.50;100.00
11440;BME280;5776;51.814;4.510;2023-04-10T12:24:42;101295.56;;;11.52;99.87
11440;BME280;5776;51.814;4.510;2023-04-10T12:27:22;101273.53;;;11.54;100.00
11440;BME280;5776;51.814;4.510;2023-04-10T12:29:50;101274.84;;;11.61;100.00
11440;BME280;5776;51.814;4.510;2023-04-10T12:32:16;101275.69;;;11.57;100.00
11440;BME280;5776;51.814;4.510;2023-04-10T12:34:52;101280.31;;;11.56;100.00
11440;BME280;5776;51.814;4.510;2023-04-10T12:37:19;101273.75;;;11.57;100.00
11440;BME280;5776;51.814;4.510;2023-04-10T12:39:45;101271.84;;;11.58;100.00
11440;BME280;5776;51.814;4.510;2023-04-10T12:42:18;101278.41;;;11.57;100.00
11440;BME280;5776;51.814;4.510;2023-04-10T12:44:52;101261.78;;;11.58;100.00
11440;BME280;5776;51.814;4.510;2023-04-10T12:47:19;101260.41;;;11.61;100.00
11440;BME280;5776;51.814;4.510;2023-04-10T12:50:13;101245.19;;;11.60;100.00
11440;BME280;5776;51.814;4.510;2023-04-10T12:52:41;101239.22;;;11.58;100.00
11440;BME280;5776;51.814;4.510;2023-04-10T12:55:09;101238.66;;;11.56;100.00
11440;BME280;5776;51.814;4.510;2023-04-10T12:57:39;101235.94;;;11.56;100.00
11440;BME280;5776;51.814;4.510;2023-04-10T13:00:07;101230.50;;;11.56;100.00
11440;BME280;5776;51.814;4.510;2023-04-10T13:02:37;101218.81;;;11.55;100.00
11440;BME280;5776;51.814;4.510;2023-04-10T13:05:04;101216.09;;;11.55;100.00
11440;BME280;5776;51.814;4.510;2023-04-10T13:07:30;101206.03;;;11.56;100.00
11440;BME280;5776;51.814;4.510;2023-04-10T13:09:57;101198.72;;;11.56;100.00
11440;BME280;5776;51.814;4.510;2023-04-10T13:12:24;101195.16;;;11.56;100.00
11440;BME280;5776;51.814;4.510;2023-04-10T13:14:53;101194.34;;;11.55;100.00
11440;BME280;5776;51.814;4.510;2023-04-10T13:17:20;101187.00;;;11.56;100.00
11440;BME280;5776;51.814;4.510;2023-04-10T13:19:46;101182.38;;;11.56;100.00
11440;BME280;5776;51.814;4.510;2023-04-10T13:22:12;101182.38;;;11.56;100.00
11440;BME280;5776;51.814;4.510;2023-04-10T13:24:38;101176.09;;;11.56;100.00
11440;BME280;5776;51.814;4.510;2023-04-10T13:27:04;101176.09;;;11.56;100.00
11440;BME280;5776;51.814;4.510;2023-04-10T13:29:30;101179.66;;;11.56;100.00
11440;BME280;5776;51.814;4.510;2023-04-10T13:31:56;101177.75;;;11.57;100.00